createdAt,value
2023-03-29T00:00:16.926Z,-0.74
2023-03-29T00:03:04.730Z,-0.77
2023-03-29T00:05:35.109Z,-0.79
2023-03-29T00:08:04.611Z,-0.82
2023-03-29T00:10:32.782Z,-0.84
2023-03-29T00:13:00.524Z,-0.87
2023-03-29T00:15:28.189Z,-0.92
2023-03-29T00:17:56.155Z,-0.94
2023-03-29T00:20:23.918Z,-0.99
2023-03-29T00:22:51.886Z,-1.01
2023-03-29T00:25:19.550Z,-1.03
2023-03-29T00:27:47.309Z,-1.05
2023-03-29T00:30:15.600Z,-1.08
2023-03-29T00:32:43.364Z,-1.11
2023-03-29T00:35:11.224Z,-1.15
2023-03-29T00:37:38.877Z,-1.21
2023-03-29T00:40:11.253Z,-1.24
2023-03-29T00:42:38.923Z,-1.28
2023-03-29T00:45:07.295Z,-1.28
2023-03-29T00:47:35.080Z,-1.26
2023-03-29T00:50:02.821Z,-1.27
2023-03-29T00:52:30.489Z,-1.26
2023-03-29T00:54:58.142Z,-1.23
2023-03-29T00:57:27.695Z,-1.21
2023-03-29T00:59:55.614Z,-1.22
2023-03-29T01:02:23.410Z,-1.22
2023-03-29T01:04:51.145Z,-1.20
2023-03-29T01:07:21.566Z,-1.22
2023-03-29T01:09:49.438Z,-1.21
2023-03-29T01:12:20.172Z,-1.20
2023-03-29T01:14:47.942Z,-1.19
2023-03-29T01:17:16.317Z,-1.22
2023-03-29T01:19:43.984Z,-1.23
2023-03-29T01:22:13.701Z,-1.25
2023-03-29T01:24:42.241Z,-1.28
2023-03-29T01:27:10.032Z,-1.31
2023-03-29T01:29:37.797Z,-1.34
2023-03-29T01:32:05.624Z,-1.37
2023-03-29T01:34:33.533Z,-1.42
2023-03-29T01:37:01.191Z,-1.45
2023-03-29T01:39:28.955Z,-1.47
2023-03-29T01:41:56.719Z,-1.49
2023-03-29T01:44:24.484Z,-1.51
2023-03-29T01:46:52.149Z,-1.53
2023-03-29T01:49:19.806Z,-1.56
2023-03-29T01:51:47.468Z,-1.59
2023-03-29T01:54:15.141Z,-1.61
2023-03-29T01:56:42.933Z,-1.60
2023-03-29T01:59:11.487Z,-1.61
2023-03-29T02:01:39.181Z,-1.63
2023-03-29T02:04:07.008Z,-1.65
2023-03-29T02:06:34.772Z,-1.69
2023-03-29T02:09:05.095Z,-1.69
2023-03-29T02:11:32.753Z,-1.70
2023-03-29T02:14:00.928Z,-1.72
2023-03-29T02:16:28.899Z,-1.74
2023-03-29T02:18:57.171Z,-1.75
2023-03-29T02:21:24.940Z,-1.78
2023-03-29T02:23:54.868Z,-1.80
2023-03-29T02:26:24.129Z,-1.82
2023-03-29T02:28:53.144Z,-1.85
2023-03-29T02:31:21.576Z,-1.87
2023-03-29T02:33:49.386Z,-1.89
2023-03-29T02:36:17.849Z,-1.92
2023-03-29T02:38:46.656Z,-1.93
2023-03-29T02:41:14.420Z,-1.95
2023-03-29T02:43:42.490Z,-1.99
2023-03-29T02:46:10.192Z,-2.02
2023-03-29T02:48:38.028Z,-2.05
2023-03-29T02:51:05.991Z,-2.06
2023-03-29T02:53:33.761Z,-2.08
2023-03-29T02:56:02.473Z,-2.10
2023-03-29T02:58:31.850Z,-2.11
2023-03-29T03:00:59.829Z,-2.09
2023-03-29T03:03:27.929Z,-2.08
2023-03-29T03:05:55.650Z,-2.09
2023-03-29T03:08:23.411Z,-2.09
2023-03-29T03:10:51.076Z,-2.11
2023-03-29T03:13:18.938Z,-2.11
2023-03-29T03:15:49.426Z,-2.12
2023-03-29T03:18:17.847Z,-2.15
2023-03-29T03:20:46.844Z,-2.17
2023-03-29T03:23:14.604Z,-2.16
2023-03-29T03:25:42.261Z,-2.17
2023-03-29T03:28:10.445Z,-2.18
2023-03-29T03:30:38.812Z,-2.16
2023-03-29T03:33:06.506Z,-2.17
2023-03-29T03:35:35.104Z,-2.18
2023-03-29T03:38:02.922Z,-2.21
2023-03-29T03:40:30.690Z,-2.24
2023-03-29T03:42:58.460Z,-2.26
2023-03-29T03:45:26.322Z,-2.29
2023-03-29T03:47:54.241Z,-2.32
2023-03-29T03:50:21.951Z,-2.35
2023-03-29T03:52:49.627Z,-2.37
2023-03-29T03:55:17.993Z,-2.40
2023-03-29T03:57:45.919Z,-2.40
2023-03-29T04:00:19.983Z,-2.41
2023-03-29T04:02:48.482Z,-2.42
2023-03-29T04:05:17.339Z,-2.41
2023-03-29T04:07:45.001Z,-2.41
2023-03-29T04:10:12.764Z,-2.43
2023-03-29T04:12:40.531Z,-2.41
2023-03-29T04:15:08.902Z,-2.41
2023-03-29T04:17:37.351Z,-2.42
2023-03-29T04:20:12.798Z,-2.41
2023-03-29T04:22:41.344Z,-2.41
2023-03-29T04:25:10.571Z,-2.41
2023-03-29T04:27:38.412Z,-2.42
2023-03-29T04:30:07.472Z,-2.42
2023-03-29T04:32:35.253Z,-2.43
2023-03-29T04:35:04.955Z,-2.45
2023-03-29T04:37:32.714Z,-2.48
2023-03-29T04:40:09.208Z,-2.52
2023-03-29T04:42:37.640Z,-2.57
2023-03-29T04:45:07.396Z,-2.61
2023-03-29T04:47:36.723Z,-2.63
2023-03-29T04:50:04.535Z,-2.64
2023-03-29T04:52:33.561Z,-2.66
2023-03-29T04:55:01.806Z,-2.68
2023-03-29T04:57:29.570Z,-2.71
2023-03-29T04:59:57.336Z,-2.72
2023-03-29T05:02:25.141Z,-2.71
2023-03-29T05:04:52.864Z,-2.70
2023-03-29T05:07:20.626Z,-2.71
2023-03-29T05:09:48.797Z,-2.70
2023-03-29T05:12:16.561Z,-2.62
2023-03-29T05:14:44.237Z,-2.49
2023-03-29T05:17:11.989Z,-2.44
2023-03-29T05:19:39.761Z,-2.44
2023-03-29T05:22:07.731Z,-2.40
2023-03-29T05:24:35.513Z,-2.38
2023-03-29T05:27:03.971Z,-2.35
2023-03-29T05:29:34.389Z,-2.36
2023-03-29T05:32:02.198Z,-2.34
2023-03-29T05:34:31.659Z,-2.32
2023-03-29T05:36:59.731Z,-2.32
2023-03-29T05:39:27.491Z,-2.33
2023-03-29T05:41:55.254Z,-2.31
2023-03-29T05:44:23.019Z,-2.31
2023-03-29T05:46:50.893Z,-2.27
2023-03-29T05:49:18.865Z,-2.25
2023-03-29T05:51:46.622Z,-2.21
2023-03-29T05:54:15.304Z,-2.17
2023-03-29T05:56:43.096Z,-2.15
2023-03-29T05:59:10.835Z,-2.14
2023-03-29T06:01:40.234Z,-2.14
2023-03-29T06:04:08.087Z,-2.13
2023-03-29T06:06:36.050Z,-2.11
2023-03-29T06:09:04.347Z,-2.08
2023-03-29T06:11:33.240Z,-2.04
2023-03-29T06:14:02.640Z,-1.95
2023-03-29T06:16:30.437Z,-1.91
2023-03-29T06:18:58.475Z,-1.89
2023-03-29T06:21:27.468Z,-1.86
2023-03-29T06:23:55.136Z,-1.83
2023-03-29T06:26:23.311Z,-1.79
2023-03-29T06:28:52.386Z,-1.76
2023-03-29T06:31:21.293Z,-1.73
2023-03-29T06:33:49.773Z,-1.68
2023-03-29T06:36:17.571Z,-1.62
2023-03-29T06:38:46.222Z,-1.56
2023-03-29T06:41:15.118Z,-1.50
2023-03-29T06:43:42.876Z,-1.45
2023-03-29T06:46:12.563Z,-1.40
2023-03-29T06:48:41.195Z,-1.34
2023-03-29T06:51:08.946Z,-1.29
2023-03-29T06:53:37.007Z,-1.23
2023-03-29T06:56:05.505Z,-1.17
2023-03-29T06:58:33.254Z,-1.13
2023-03-29T07:01:02.574Z,-1.06
2023-03-29T07:03:30.632Z,-0.97
2023-03-29T07:06:01.454Z,-0.89
2023-03-29T07:08:31.979Z,-0.82
2023-03-29T07:11:00.083Z,-0.78
2023-03-29T07:13:28.023Z,-0.70
2023-03-29T07:15:56.049Z,-0.64
2023-03-29T07:18:24.062Z,-0.57
2023-03-29T07:20:52.444Z,-0.48
2023-03-29T07:23:20.081Z,-0.41
2023-03-29T07:25:47.767Z,-0.35
2023-03-29T07:28:15.424Z,-0.29
2023-03-29T07:30:43.088Z,-0.24
2023-03-29T07:33:10.838Z,-0.17
2023-03-29T07:35:38.665Z,-0.10
2023-03-29T07:38:08.427Z,-0.04
2023-03-29T07:40:36.071Z,0.01
2023-03-29T07:43:09.138Z,0.05
2023-03-29T07:45:37.253Z,0.12
2023-03-29T07:48:05.158Z,0.21
2023-03-29T07:50:32.990Z,0.27
2023-03-29T07:53:01.665Z,0.35
2023-03-29T07:55:29.426Z,0.38
2023-03-29T07:57:57.092Z,0.42
2023-03-29T08:00:25.221Z,0.44
2023-03-29T08:02:53.263Z,0.47
2023-03-29T08:05:29.059Z,0.51
2023-03-29T08:08:01.562Z,0.54
2023-03-29T08:10:29.220Z,0.60
2023-03-29T08:12:58.420Z,0.66
2023-03-29T08:15:26.800Z,0.71
2023-03-29T08:17:54.701Z,0.77
2023-03-29T08:20:22.540Z,0.83
2023-03-29T08:22:50.165Z,0.90
2023-03-29T08:25:17.959Z,0.94
2023-03-29T08:27:45.625Z,1.00
2023-03-29T08:30:15.750Z,1.07
2023-03-29T08:32:43.680Z,1.14
2023-03-29T08:35:11.480Z,1.23
2023-03-29T08:37:39.346Z,1.31
2023-03-29T08:40:07.105Z,1.39
2023-03-29T08:42:34.815Z,1.44
2023-03-29T08:45:03.047Z,1.50
2023-03-29T08:47:31.342Z,1.56
2023-03-29T08:49:59.391Z,1.64
2023-03-29T08:52:27.328Z,1.71
2023-03-29T08:54:56.141Z,1.80
2023-03-29T08:57:24.061Z,1.87
2023-03-29T08:59:51.979Z,1.93
2023-03-29T09:02:19.680Z,1.99
2023-03-29T09:04:49.127Z,2.02
2023-03-29T09:07:17.216Z,2.08
2023-03-29T09:09:45.181Z,2.12
2023-03-29T09:12:13.355Z,2.16
2023-03-29T09:14:41.231Z,2.22
2023-03-29T09:17:08.990Z,2.31
2023-03-29T09:19:36.657Z,2.42
2023-03-29T09:22:04.617Z,2.47
2023-03-29T09:24:32.687Z,2.50
2023-03-29T09:27:00.458Z,2.52
2023-03-29T09:29:28.215Z,2.58
2023-03-29T09:31:56.666Z,2.69
2023-03-29T09:34:24.431Z,2.78
2023-03-29T09:36:52.682Z,2.85
2023-03-29T09:39:23.367Z,2.94
2023-03-29T09:41:51.032Z,3.08
2023-03-29T09:44:30.138Z,3.20
2023-03-29T09:46:58.640Z,3.32
2023-03-29T09:49:26.405Z,3.41
2023-03-29T09:51:54.576Z,3.47
2023-03-29T09:54:22.446Z,3.57
2023-03-29T09:56:50.262Z,3.70
2023-03-29T09:59:18.080Z,3.74
2023-03-29T10:01:46.006Z,3.79
2023-03-29T10:04:13.851Z,3.82
2023-03-29T10:06:41.572Z,3.85
2023-03-29T10:09:09.339Z,3.99
2023-03-29T10:11:37.212Z,4.14
2023-03-29T10:14:04.979Z,4.29
2023-03-29T10:16:32.831Z,4.36
2023-03-29T10:19:00.598Z,4.41
2023-03-29T10:21:28.222Z,4.52
2023-03-29T10:23:55.922Z,4.64
2023-03-29T10:26:24.094Z,4.72
2023-03-29T10:28:51.859Z,4.73
2023-03-29T10:31:19.746Z,4.80
2023-03-29T10:33:47.492Z,4.94
2023-03-29T10:36:15.646Z,5.03
2023-03-29T10:38:43.425Z,5.07
2023-03-29T10:41:11.207Z,5.14
2023-03-29T10:43:52.778Z,5.18
2023-03-29T10:46:21.004Z,5.21
2023-03-29T10:48:49.234Z,5.33
2023-03-29T10:51:17.092Z,5.37
2023-03-29T10:53:44.860Z,5.47
2023-03-29T10:56:12.936Z,5.58
2023-03-29T10:58:40.694Z,5.66
2023-03-29T11:01:08.377Z,5.70
2023-03-29T11:03:36.277Z,5.80
2023-03-29T11:06:04.498Z,5.96
2023-03-29T11:08:32.214Z,6.03
2023-03-29T11:11:00.018Z,6.11
2023-03-29T11:13:28.094Z,6.24
2023-03-29T11:15:56.007Z,6.32
2023-03-29T11:18:23.835Z,6.36
2023-03-29T11:20:52.103Z,6.37
2023-03-29T11:23:19.765Z,6.38
2023-03-29T11:25:47.629Z,6.34
2023-03-29T11:28:15.395Z,6.32
2023-03-29T11:30:43.160Z,6.29
2023-03-29T11:33:10.831Z,6.32
2023-03-29T11:35:38.648Z,6.40
2023-03-29T11:38:06.961Z,6.53
2023-03-29T11:40:36.400Z,6.57
2023-03-29T11:43:04.744Z,6.63
2023-03-29T11:45:32.715Z,6.75
2023-03-29T11:48:00.531Z,6.79
2023-03-29T11:50:28.343Z,6.84
2023-03-29T11:52:56.209Z,6.86
2023-03-29T11:55:23.977Z,6.90
2023-03-29T11:57:51.741Z,6.86
2023-03-29T12:00:19.910Z,6.87
2023-03-29T12:02:48.447Z,6.80
2023-03-29T12:05:17.900Z,6.81
2023-03-29T12:07:45.863Z,6.89
2023-03-29T12:10:13.630Z,6.97
2023-03-29T12:12:41.293Z,6.98
2023-03-29T12:15:09.361Z,7.05
2023-03-29T12:17:37.395Z,7.11
2023-03-29T12:20:05.337Z,7.16
2023-03-29T12:22:33.879Z,7.13
2023-03-29T12:25:01.652Z,7.13
2023-03-29T12:27:29.410Z,7.17
2023-03-29T12:29:57.174Z,7.23
2023-03-29T12:32:24.878Z,7.28
2023-03-29T12:34:52.704Z,7.25
2023-03-29T12:37:21.185Z,7.24
2023-03-29T12:39:49.362Z,7.25
2023-03-29T12:42:17.278Z,7.29
2023-03-29T12:44:44.992Z,7.34
2023-03-29T12:47:12.652Z,7.44
2023-03-29T12:49:40.315Z,7.53
2023-03-29T12:52:07.978Z,7.56
2023-03-29T12:54:35.860Z,7.56
2023-03-29T12:57:03.543Z,7.63
2023-03-29T12:59:31.370Z,7.71
2023-03-29T13:01:59.071Z,7.76
2023-03-29T13:04:27.208Z,7.84
2023-03-29T13:06:56.372Z,7.84
2023-03-29T13:09:24.077Z,7.90
2023-03-29T13:11:51.852Z,8.02
2023-03-29T13:14:19.603Z,8.09
2023-03-29T13:16:47.361Z,8.14
2023-03-29T13:19:15.023Z,8.18
2023-03-29T13:21:42.784Z,8.24
2023-03-29T13:24:10.441Z,8.27
2023-03-29T13:26:38.108Z,8.28
2023-03-29T13:29:05.766Z,8.24
2023-03-29T13:31:33.469Z,8.32
2023-03-29T13:34:01.508Z,8.35
2023-03-29T13:36:30.747Z,8.34
2023-03-29T13:39:00.406Z,8.29
2023-03-29T13:41:28.986Z,8.31
2023-03-29T13:43:56.752Z,8.36
2023-03-29T13:46:24.486Z,8.41
2023-03-29T13:48:53.972Z,8.45
2023-03-29T13:51:21.997Z,8.51
2023-03-29T13:53:49.652Z,8.53
2023-03-29T13:56:17.320Z,8.52
2023-03-29T13:58:45.079Z,8.48
2023-03-29T14:01:12.989Z,8.49
2023-03-29T14:03:40.713Z,8.51
2023-03-29T14:06:08.370Z,8.51
2023-03-29T14:08:36.122Z,8.53
2023-03-29T14:11:03.909Z,8.59
2023-03-29T14:13:31.661Z,8.63
2023-03-29T14:16:00.286Z,8.63
2023-03-29T14:18:28.108Z,8.69
2023-03-29T14:20:55.872Z,8.71
2023-03-29T14:23:23.644Z,8.77
2023-03-29T14:25:51.495Z,8.77
2023-03-29T14:28:19.275Z,8.81
2023-03-29T14:30:47.445Z,8.87
2023-03-29T14:33:15.104Z,8.99
2023-03-29T14:35:42.931Z,9.07
2023-03-29T14:38:10.628Z,9.14
2023-03-29T14:40:38.291Z,9.17
2023-03-29T14:43:06.081Z,9.19
2023-03-29T14:45:33.826Z,9.26
2023-03-29T14:48:01.833Z,9.33
2023-03-29T14:50:29.653Z,9.46
2023-03-29T14:52:57.420Z,9.59
2023-03-29T14:55:25.170Z,9.69
2023-03-29T14:57:52.947Z,9.83
2023-03-29T15:00:21.427Z,10.00
2023-03-29T15:02:49.243Z,10.18
2023-03-29T15:05:17.162Z,10.31
2023-03-29T15:07:45.030Z,10.46
2023-03-29T15:10:12.686Z,10.53
2023-03-29T15:12:40.350Z,10.39
2023-03-29T15:15:10.679Z,10.25
2023-03-29T15:17:50.314Z,10.08
2023-03-29T15:20:21.602Z,9.96
2023-03-29T15:22:49.539Z,9.74
2023-03-29T15:25:17.502Z,9.59
2023-03-29T15:27:45.263Z,9.49
2023-03-29T15:30:13.031Z,9.39
2023-03-29T15:32:41.780Z,9.34
2023-03-29T15:35:09.788Z,9.35
2023-03-29T15:37:37.960Z,9.28
2023-03-29T15:40:09.931Z,9.22
2023-03-29T15:42:37.787Z,9.13
2023-03-29T15:45:06.652Z,9.06
2023-03-29T15:47:34.377Z,9.02
2023-03-29T15:50:02.210Z,8.95
2023-03-29T15:52:29.979Z,8.88
2023-03-29T15:54:57.731Z,8.80
2023-03-29T15:57:25.708Z,8.76
2023-03-29T15:59:53.582Z,8.73
2023-03-29T16:02:21.910Z,8.68
2023-03-29T16:04:49.815Z,8.58
2023-03-29T16:07:17.474Z,8.49
2023-03-29T16:09:46.060Z,8.42
2023-03-29T16:12:13.718Z,8.36
2023-03-29T16:14:43.036Z,8.31
2023-03-29T16:17:11.089Z,8.29
2023-03-29T16:19:38.859Z,8.28
2023-03-29T16:22:07.693Z,8.25
2023-03-29T16:24:35.820Z,8.17
2023-03-29T16:27:04.001Z,8.11
2023-03-29T16:29:31.994Z,8.01
2023-03-29T16:32:00.221Z,7.92
2023-03-29T16:34:28.529Z,7.86
2023-03-29T16:36:56.171Z,7.79
2023-03-29T16:39:23.943Z,7.72
2023-03-29T16:41:51.698Z,7.65
2023-03-29T16:44:21.776Z,7.60
2023-03-29T16:46:51.835Z,7.54
2023-03-29T16:49:19.744Z,7.48
2023-03-29T16:51:48.081Z,7.43
2023-03-29T16:54:17.376Z,7.35
2023-03-29T16:56:45.175Z,7.29
2023-03-29T16:59:12.906Z,7.23
2023-03-29T17:01:40.928Z,7.15
2023-03-29T17:04:09.015Z,7.06
2023-03-29T17:06:37.233Z,6.95
2023-03-29T17:09:06.258Z,6.86
2023-03-29T17:11:34.307Z,6.78
2023-03-29T17:14:02.156Z,6.70
2023-03-29T17:16:29.850Z,6.60
2023-03-29T17:18:58.709Z,6.51
2023-03-29T17:21:27.490Z,6.40
2023-03-29T17:23:55.670Z,6.33
2023-03-29T17:26:23.325Z,6.24
2023-03-29T17:28:51.094Z,6.18
2023-03-29T17:31:19.896Z,6.10
2023-03-29T17:33:50.611Z,6.03
2023-03-29T17:36:19.340Z,5.98
2023-03-29T17:38:48.973Z,5.90
2023-03-29T17:41:16.678Z,5.84
2023-03-29T17:43:44.805Z,5.80
2023-03-29T17:46:12.537Z,5.78
2023-03-29T17:48:40.376Z,5.74
2023-03-29T17:51:08.033Z,5.72
2023-03-29T17:53:35.706Z,5.69
2023-03-29T17:56:04.434Z,5.65
2023-03-29T17:58:33.074Z,5.58
2023-03-29T18:01:01.578Z,5.52
2023-03-29T18:03:29.249Z,5.48
2023-03-29T18:05:56.979Z,5.44
2023-03-29T18:08:24.597Z,5.40
2023-03-29T18:10:52.301Z,5.36
2023-03-29T18:13:25.634Z,5.30
2023-03-29T18:15:53.353Z,5.25
2023-03-29T18:18:21.029Z,5.22
2023-03-29T18:20:48.783Z,5.18
2023-03-29T18:23:16.442Z,5.12
2023-03-29T18:25:44.106Z,5.06
2023-03-29T18:28:11.972Z,5.01
2023-03-29T18:30:39.739Z,4.97
2023-03-29T18:33:07.552Z,4.89
2023-03-29T18:35:35.285Z,4.83
2023-03-29T18:38:03.644Z,4.79
2023-03-29T18:40:31.308Z,4.74
2023-03-29T18:42:58.967Z,4.71
2023-03-29T18:45:26.734Z,4.68
2023-03-29T18:47:54.441Z,4.67
2023-03-29T18:50:22.569Z,4.65
2023-03-29T18:52:50.230Z,4.64
2023-03-29T18:55:17.891Z,4.61
2023-03-29T18:57:45.692Z,4.59
2023-03-29T19:00:13.422Z,4.57
2023-03-29T19:02:41.272Z,4.56
2023-03-29T19:05:09.179Z,4.53
2023-03-29T19:07:37.020Z,4.53
2023-03-29T19:10:05.163Z,4.51
2023-03-29T19:12:33.469Z,4.49
2023-03-29T19:15:01.234Z,4.48
2023-03-29T19:17:29.015Z,4.47
2023-03-29T19:19:56.976Z,4.44
2023-03-29T19:22:24.617Z,4.41
2023-03-29T19:24:52.393Z,4.40
2023-03-29T19:27:20.158Z,4.40
2023-03-29T19:29:48.437Z,4.40
2023-03-29T19:32:16.408Z,4.39
2023-03-29T19:34:44.077Z,4.37
2023-03-29T19:37:11.837Z,4.35
2023-03-29T19:39:41.229Z,4.34
2023-03-29T19:42:08.885Z,4.34
2023-03-29T19:44:38.392Z,4.34
2023-03-29T19:47:06.212Z,4.34
2023-03-29T19:49:38.422Z,4.34
2023-03-29T19:52:06.492Z,4.34
2023-03-29T19:54:34.182Z,4.33
2023-03-29T19:57:02.976Z,4.30
2023-03-29T19:59:31.622Z,4.28
2023-03-29T20:01:59.520Z,4.27
2023-03-29T20:04:29.014Z,4.26
2023-03-29T20:06:57.790Z,4.25
2023-03-29T20:09:25.450Z,4.23
2023-03-29T20:11:53.212Z,4.22
2023-03-29T20:14:20.975Z,4.19
2023-03-29T20:16:50.933Z,4.18
2023-03-29T20:19:19.476Z,4.17
2023-03-29T20:21:50.923Z,4.16
2023-03-29T20:24:19.102Z,4.15
2023-03-29T20:26:46.725Z,4.13
2023-03-29T20:29:15.551Z,4.13
2023-03-29T20:31:43.273Z,4.10
2023-03-29T20:34:11.383Z,4.08
2023-03-29T20:36:40.551Z,4.06
2023-03-29T20:39:08.548Z,4.04
2023-03-29T20:41:38.464Z,4.02
2023-03-29T20:44:06.437Z,4.01
2023-03-29T20:46:34.374Z,3.99
2023-03-29T20:49:02.280Z,3.99
2023-03-29T20:51:33.108Z,3.98
2023-03-29T20:54:02.782Z,3.97
2023-03-29T20:56:30.686Z,3.96
2023-03-29T20:58:59.058Z,3.95
2023-03-29T21:01:28.085Z,3.94
2023-03-29T21:03:55.987Z,3.95
2023-03-29T21:06:24.603Z,3.94
2023-03-29T21:08:52.760Z,3.93
2023-03-29T21:11:20.444Z,3.93
2023-03-29T21:13:48.211Z,3.93
2023-03-29T21:16:15.987Z,3.95
2023-03-29T21:18:44.046Z,3.95
2023-03-29T21:21:11.700Z,3.94
2023-03-29T21:23:39.468Z,3.93
2023-03-29T21:26:08.052Z,3.92
2023-03-29T21:28:36.023Z,3.91
2023-03-29T21:31:04.964Z,3.90
2023-03-29T21:33:33.090Z,3.88
2023-03-29T21:36:01.293Z,3.87
2023-03-29T21:38:29.022Z,3.86
2023-03-29T21:40:58.242Z,3.87
2023-03-29T21:43:25.954Z,3.89
2023-03-29T21:45:53.844Z,3.89
2023-03-29T21:48:21.507Z,3.89
2023-03-29T21:50:49.683Z,3.89
2023-03-29T21:53:18.478Z,3.88
2023-03-29T21:55:46.234Z,3.86
2023-03-29T21:58:13.895Z,3.85
2023-03-29T22:00:41.923Z,3.85
2023-03-29T22:03:09.696Z,3.85
2023-03-29T22:05:37.501Z,3.84
2023-03-29T22:08:05.267Z,3.85
2023-03-29T22:10:33.747Z,3.83
2023-03-29T22:13:01.505Z,3.83
2023-03-29T22:15:35.653Z,3.83
2023-03-29T22:18:03.415Z,3.83
2023-03-29T22:20:31.249Z,3.83
2023-03-29T22:22:58.910Z,3.82
2023-03-29T22:25:27.289Z,3.83
2023-03-29T22:27:54.952Z,3.83
2023-03-29T22:30:23.039Z,3.84
2023-03-29T22:32:51.018Z,3.83
2023-03-29T22:35:18.956Z,3.84
2023-03-29T22:37:46.618Z,3.84
2023-03-29T22:40:14.280Z,3.84
2023-03-29T22:42:41.958Z,3.83
2023-03-29T22:45:09.708Z,3.81
2023-03-29T22:47:37.538Z,3.79
2023-03-29T22:50:05.233Z,3.78
2023-03-29T22:52:33.003Z,3.77
2023-03-29T22:55:00.676Z,3.76
2023-03-29T22:57:28.445Z,3.76
2023-03-29T22:59:56.288Z,3.76
2023-03-29T23:02:24.504Z,3.76
2023-03-29T23:04:52.360Z,3.75
2023-03-29T23:07:20.198Z,3.74
2023-03-29T23:09:47.855Z,3.72
2023-03-29T23:12:15.726Z,3.70
2023-03-29T23:14:45.431Z,3.68
2023-03-29T23:17:13.602Z,3.67
2023-03-29T23:19:41.790Z,3.65
2023-03-29T23:22:09.440Z,3.61
2023-03-29T23:24:37.101Z,3.60
2023-03-29T23:27:05.682Z,3.59
2023-03-29T23:29:34.678Z,3.57
2023-03-29T23:32:02.343Z,3.54
2023-03-29T23:34:30.315Z,3.51
2023-03-29T23:36:57.969Z,3.49
2023-03-29T23:39:25.633Z,3.47
2023-03-29T23:41:53.396Z,3.43
2023-03-29T23:44:21.056Z,3.39
2023-03-29T23:46:48.854Z,3.36
2023-03-29T23:49:17.404Z,3.33
2023-03-29T23:51:45.166Z,3.31
2023-03-29T23:54:13.137Z,3.29
2023-03-29T23:56:40.887Z,3.27
2023-03-29T23:59:09.091Z,3.24
